sensor_id;sensor_type;location;lat;lon;timestamp;temperature;humidity
64951;DHT22;51482;47.014;7.652;2023-06-14T00:01:47;15.00;79.00
64951;DHT22;51482;47.014;7.652;2023-06-14T00:04:14;14.90;77.30
64951;DHT22;51482;47.014;7.652;2023-06-14T00:06:42;15.10;78.80
64951;DHT22;51482;47.014;7.652;2023-06-14T00:09:11;14.70;79.20
64951;DHT22;51482;47.014;7.652;2023-06-14T00:11:38;14.70;79.00
64951;DHT22;51482;47.014;7.652;2023-06-14T00:14:04;14.90;80.70
64951;DHT22;51482;47.014;7.652;2023-06-14T00:16:30;14.70;81.60
64951;DHT22;51482;47.014;7.652;2023-06-14T00:18:55;14.40;80.60
64951;DHT22;51482;47.014;7.652;2023-06-14T00:21:21;14.60;79.70
64951;DHT22;51482;47.014;7.652;2023-06-14T00:23:47;14.50;80.10
64951;DHT22;51482;47.014;7.652;2023-06-14T00:26:12;14.50;79.10
64951;DHT22;51482;47.014;7.652;2023-06-14T00:28:38;14.30;79.10
64951;DHT22;51482;47.014;7.652;2023-06-14T00:31:03;13.90;79.30
64951;DHT22;51482;47.014;7.652;2023-06-14T00:33:29;14.30;81.00
64951;DHT22;51482;47.014;7.652;2023-06-14T00:35:55;13.90;81.10
64951;DHT22;51482;47.014;7.652;2023-06-14T00:38:21;13.90;84.50
64951;DHT22;51482;47.014;7.652;2023-06-14T00:40:46;13.90;84.20
64951;DHT22;51482;47.014;7.652;2023-06-14T00:43:12;14.00;85.10
64951;DHT22;51482;47.014;7.652;2023-06-14T00:45:38;13.80;84.10
64951;DHT22;51482;47.014;7.652;2023-06-14T00:48:07;13.80;83.60
64951;DHT22;51482;47.014;7.652;2023-06-14T00:50:33;13.80;86.40
64951;DHT22;51482;47.014;7.652;2023-06-14T00:53:00;14.30;85.70
64951;DHT22;51482;47.014;7.652;2023-06-14T00:55:26;14.00;85.20
64951;DHT22;51482;47.014;7.652;2023-06-14T00:57:53;13.60;85.20
64951;DHT22;51482;47.014;7.652;2023-06-14T01:00:19;13.50;87.10
64951;DHT22;51482;47.014;7.652;2023-06-14T01:02:45;13.50;88.10
64951;DHT22;51482;47.014;7.652;2023-06-14T01:05:10;13.50;87.80
64951;DHT22;51482;47.014;7.652;2023-06-14T01:10:26;13.10;87.00
64951;DHT22;51482;47.014;7.652;2023-06-14T01:13:21;13.30;88.30
64951;DHT22;51482;47.014;7.652;2023-06-14T01:15:50;14.30;88.20
64951;DHT22;51482;47.014;7.652;2023-06-14T01:18:16;13.20;85.80
64951;DHT22;51482;47.014;7.652;2023-06-14T01:20:43;13.80;86.90
64951;DHT22;51482;47.014;7.652;2023-06-14T01:23:10;13.20;86.40
64951;DHT22;51482;47.014;7.652;2023-06-14T01:25:37;13.20;89.80
64951;DHT22;51482;47.014;7.652;2023-06-14T01:28:08;13.20;89.30
64951;DHT22;51482;47.014;7.652;2023-06-14T01:30:40;13.20;90.20
64951;DHT22;51482;47.014;7.652;2023-06-14T01:33:15;13.20;89.80
64951;DHT22;51482;47.014;7.652;2023-06-14T01:35:47;13.20;90.10
64951;DHT22;51482;47.014;7.652;2023-06-14T01:38:13;13.00;90.30
64951;DHT22;51482;47.014;7.652;2023-06-14T01:40:41;12.90;88.00
64951;DHT22;51482;47.014;7.652;2023-06-14T01:43:08;12.90;87.60
64951;DHT22;51482;47.014;7.652;2023-06-14T01:45:38;12.80;90.00
64951;DHT22;51482;47.014;7.652;2023-06-14T01:48:05;12.80;89.10
64951;DHT22;51482;47.014;7.652;2023-06-14T01:50:31;12.80;91.00
64951;DHT22;51482;47.014;7.652;2023-06-14T01:52:57;13.30;92.70
64951;DHT22;51482;47.014;7.652;2023-06-14T01:55:23;12.80;92.60
64951;DHT22;51482;47.014;7.652;2023-06-14T01:57:53;12.70;93.10
64951;DHT22;51482;47.014;7.652;2023-06-14T02:00:20;12.60;92.60
64951;DHT22;51482;47.014;7.652;2023-06-14T02:02:46;12.50;92.40
64951;DHT22;51482;47.014;7.652;2023-06-14T02:05:12;12.40;93.80
64951;DHT22;51482;47.014;7.652;2023-06-14T02:07:38;12.30;94.20
64951;DHT22;51482;47.014;7.652;2023-06-14T02:10:04;12.20;93.90
64951;DHT22;51482;47.014;7.652;2023-06-14T02:12:30;12.20;93.90
64951;DHT22;51482;47.014;7.652;2023-06-14T02:14:56;12.20;95.50
64951;DHT22;51482;47.014;7.652;2023-06-14T02:17:22;12.20;96.50
64951;DHT22;51482;47.014;7.652;2023-06-14T02:19:48;12.60;99.00
64951;DHT22;51482;47.014;7.652;2023-06-14T02:22:14;12.20;99.90
64951;DHT22;51482;47.014;7.652;2023-06-14T02:24:41;12.30;99.90
64951;DHT22;51482;47.014;7.652;2023-06-14T02:27:06;12.30;99.90
64951;DHT22;51482;47.014;7.652;2023-06-14T02:29:33;12.30;99.90
64951;DHT22;51482;47.014;7.652;2023-06-14T02:31:59;12.20;99.90
64951;DHT22;51482;47.014;7.652;2023-06-14T02:34:24;12.20;99.90
64951;DHT22;51482;47.014;7.652;2023-06-14T02:36:50;12.70;99.90
64951;DHT22;51482;47.014;7.652;2023-06-14T02:39:17;12.40;99.90
64951;DHT22;51482;47.014;7.652;2023-06-14T02:41:46;12.00;99.90
64951;DHT22;51482;47.014;7.652;2023-06-14T02:44:13;12.30;99.90
64951;DHT22;51482;47.014;7.652;2023-06-14T02:46:38;12.50;99.90
64951;DHT22;51482;47.014;7.652;2023-06-14T02:49:04;12.00;99.90
64951;DHT22;51482;47.014;7.652;2023-06-14T02:51:30;11.90;99.90
64951;DHT22;51482;47.014;7.652;2023-06-14T02:53:56;11.90;99.90
64951;DHT22;51482;47.014;7.652;2023-06-14T02:56:21;12.30;99.90
64951;DHT22;51482;47.014;7.652;2023-06-14T02:58:48;12.40;99.90
64951;DHT22;51482;47.014;7.652;2023-06-14T03:01:14;11.80;99.90
64951;DHT22;51482;47.014;7.652;2023-06-14T03:03:39;11.80;99.90
64951;DHT22;51482;47.014;7.652;2023-06-14T03:06:05;11.60;99.90
64951;DHT22;51482;47.014;7.652;2023-06-14T03:08:31;11.60;99.90
64951;DHT22;51482;47.014;7.652;2023-06-14T03:11:03;12.00;99.90
64951;DHT22;51482;47.014;7.652;2023-06-14T03:13:30;11.40;99.90
64951;DHT22;51482;47.014;7.652;2023-06-14T03:15:57;11.50;99.90
64951;DHT22;51482;47.014;7.652;2023-06-14T03:18:23;11.40;99.90
64951;DHT22;51482;47.014;7.652;2023-06-14T03:20:48;11.50;99.90
64951;DHT22;51482;47.014;7.652;2023-06-14T03:23:16;11.50;99.90
64951;DHT22;51482;47.014;7.652;2023-06-14T03:25:43;11.30;99.90
64951;DHT22;51482;47.014;7.652;2023-06-14T03:28:08;11.30;99.90
64951;DHT22;51482;47.014;7.652;2023-06-14T03:30:34;11.90;99.90
64951;DHT22;51482;47.014;7.652;2023-06-14T03:32:59;11.40;99.90
64951;DHT22;51482;47.014;7.652;2023-06-14T03:35:28;11.30;99.90
64951;DHT22;51482;47.014;7.652;2023-06-14T03:37:54;11.20;99.90
64951;DHT22;51482;47.014;7.652;2023-06-14T03:40:21;11.20;99.90
64951;DHT22;51482;47.014;7.652;2023-06-14T03:42:47;11.50;99.90
64951;DHT22;51482;47.014;7.652;2023-06-14T03:45:13;11.70;99.90
64951;DHT22;51482;47.014;7.652;2023-06-14T03:47:38;11.70;99.90
64951;DHT22;51482;47.014;7.652;2023-06-14T03:50:04;11.10;99.90
64951;DHT22;51482;47.014;7.652;2023-06-14T03:52:31;11.20;99.90
64951;DHT22;51482;47.014;7.652;2023-06-14T03:54:57;10.70;99.90
64951;DHT22;51482;47.014;7.652;2023-06-14T03:57:25;11.10;99.90
64951;DHT22;51482;47.014;7.652;2023-06-14T03:59:51;11.50;99.90
64951;DHT22;51482;47.014;7.652;2023-06-14T04:02:17;11.00;99.90
64951;DHT22;51482;47.014;7.652;2023-06-14T04:04:43;10.90;99.90
64951;DHT22;51482;47.014;7.652;2023-06-14T04:07:14;10.80;99.90
64951;DHT22;51482;47.014;7.652;2023-06-14T04:09:40;11.10;99.90
64951;DHT22;51482;47.014;7.652;2023-06-14T04:12:06;10.70;99.90
64951;DHT22;51482;47.014;7.652;2023-06-14T04:14:34;10.70;99.90
64951;DHT22;51482;47.014;7.652;2023-06-14T04:17:00;10.30;99.90
64951;DHT22;51482;47.014;7.652;2023-06-14T04:19:26;10.70;99.90
64951;DHT22;51482;47.014;7.652;2023-06-14T04:21:51;10.70;99.90
64951;DHT22;51482;47.014;7.652;2023-06-14T04:24:17;10.70;99.90
64951;DHT22;51482;47.014;7.652;2023-06-14T04:26:43;11.10;99.90
64951;DHT22;51482;47.014;7.652;2023-06-14T04:29:13;10.90;99.90
64951;DHT22;51482;47.014;7.652;2023-06-14T04:31:43;11.40;99.90
64951;DHT22;51482;47.014;7.652;2023-06-14T04:34:09;11.00;99.90
64951;DHT22;51482;47.014;7.652;2023-06-14T04:36:42;11.50;99.90
64951;DHT22;51482;47.014;7.652;2023-06-14T04:39:18;10.90;99.90
64951;DHT22;51482;47.014;7.652;2023-06-14T04:41:44;11.10;99.90
64951;DHT22;51482;47.014;7.652;2023-06-14T04:44:10;11.10;99.90
64951;DHT22;51482;47.014;7.652;2023-06-14T04:46:36;11.20;99.90
64951;DHT22;51482;47.014;7.652;2023-06-14T04:49:15;11.20;99.90
64951;DHT22;51482;47.014;7.652;2023-06-14T04:51:41;11.20;99.90
64951;DHT22;51482;47.014;7.652;2023-06-14T04:54:08;11.30;99.90
64951;DHT22;51482;47.014;7.652;2023-06-14T04:56:36;11.30;99.90
64951;DHT22;51482;47.014;7.652;2023-06-14T04:59:03;12.00;99.90
64951;DHT22;51482;47.014;7.652;2023-06-14T05:01:32;12.40;99.90
64951;DHT22;51482;47.014;7.652;2023-06-14T05:03:58;13.20;99.90
64951;DHT22;51482;47.014;7.652;2023-06-14T05:06:24;13.20;99.90
64951;DHT22;51482;47.014;7.652;2023-06-14T05:08:51;13.40;99.90
64951;DHT22;51482;47.014;7.652;2023-06-14T05:11:17;14.00;99.90
64951;DHT22;51482;47.014;7.652;2023-06-14T05:13:42;13.90;99.90
64951;DHT22;51482;47.014;7.652;2023-06-14T05:16:10;14.00;99.90
64951;DHT22;51482;47.014;7.652;2023-06-14T05:18:37;14.10;99.90
64951;DHT22;51482;47.014;7.652;2023-06-14T05:21:03;14.10;99.90
64951;DHT22;51482;47.014;7.652;2023-06-14T05:23:31;14.30;99.90
64951;DHT22;51482;47.014;7.652;2023-06-14T05:25:56;14.40;99.90
64951;DHT22;51482;47.014;7.652;2023-06-14T05:28:22;14.40;99.90
64951;DHT22;51482;47.014;7.652;2023-06-14T05:30:48;13.80;99.90
64951;DHT22;51482;47.014;7.652;2023-06-14T05:33:13;14.40;99.90
64951;DHT22;51482;47.014;7.652;2023-06-14T05:35:39;14.50;99.90
64951;DHT22;51482;47.014;7.652;2023-06-14T05:38:07;14.90;99.90
64951;DHT22;51482;47.014;7.652;2023-06-14T05:40:33;14.50;99.90
64951;DHT22;51482;47.014;7.652;2023-06-14T05:42:59;14.20;99.90
64951;DHT22;51482;47.014;7.652;2023-06-14T05:45:24;14.10;99.90
64951;DHT22;51482;47.014;7.652;2023-06-14T05:47:50;14.00;99.90
64951;DHT22;51482;47.014;7.652;2023-06-14T05:50:16;14.10;99.90
64951;DHT22;51482;47.014;7.652;2023-06-14T05:52:41;14.10;99.90
64951;DHT22;51482;47.014;7.652;2023-06-14T05:55:07;14.20;99.90
64951;DHT22;51482;47.014;7.652;2023-06-14T05:57:32;14.30;99.90
64951;DHT22;51482;47.014;7.652;2023-06-14T05:59:58;14.10;99.90
64951;DHT22;51482;47.014;7.652;2023-06-14T06:02:24;14.70;99.90
64951;DHT22;51482;47.014;7.652;2023-06-14T06:04:50;15.40;99.90
64951;DHT22;51482;47.014;7.652;2023-06-14T06:07:15;14.80;99.90
64951;DHT22;51482;47.014;7.652;2023-06-14T06:09:41;15.00;99.90
64951;DHT22;51482;47.014;7.652;2023-06-14T06:12:07;15.70;99.90
64951;DHT22;51482;47.014;7.652;2023-06-14T06:14:33;15.00;99.90
64951;DHT22;51482;47.014;7.652;2023-06-14T06:16:58;15.20;99.90
64951;DHT22;51482;47.014;7.652;2023-06-14T06:19:24;15.00;99.90
64951;DHT22;51482;47.014;7.652;2023-06-14T06:21:50;15.00;99.90
64951;DHT22;51482;47.014;7.652;2023-06-14T06:24:15;15.20;99.90
64951;DHT22;51482;47.014;7.652;2023-06-14T06:26:41;15.40;99.90
64951;DHT22;51482;47.014;7.652;2023-06-14T06:29:06;15.50;99.90
64951;DHT22;51482;47.014;7.652;2023-06-14T06:31:32;15.60;99.90
64951;DHT22;51482;47.014;7.652;2023-06-14T06:33:58;15.60;99.90
64951;DHT22;51482;47.014;7.652;2023-06-14T06:36:24;15.70;99.90
64951;DHT22;51482;47.014;7.652;2023-06-14T06:38:50;15.80;99.90
64951;DHT22;51482;47.014;7.652;2023-06-14T06:41:16;15.90;99.90
64951;DHT22;51482;47.014;7.652;2023-06-14T06:43:41;16.60;99.90
64951;DHT22;51482;47.014;7.652;2023-06-14T06:46:07;16.50;99.90
64951;DHT22;51482;47.014;7.652;2023-06-14T06:48:33;16.10;99.90
64951;DHT22;51482;47.014;7.652;2023-06-14T06:50:58;15.70;99.90
64951;DHT22;51482;47.014;7.652;2023-06-14T06:53:24;15.70;99.90
64951;DHT22;51482;47.014;7.652;2023-06-14T06:55:50;16.40;99.90
64951;DHT22;51482;47.014;7.652;2023-06-14T06:58:15;17.00;99.90
64951;DHT22;51482;47.014;7.652;2023-06-14T07:00:41;16.00;99.90
64951;DHT22;51482;47.014;7.652;2023-06-14T07:03:07;17.30;99.90
64951;DHT22;51482;47.014;7.652;2023-06-14T07:05:33;16.80;99.90
64951;DHT22;51482;47.014;7.652;2023-06-14T07:07:58;16.90;99.90
64951;DHT22;51482;47.014;7.652;2023-06-14T07:10:24;17.50;99.90
64951;DHT22;51482;47.014;7.652;2023-06-14T07:12:50;17.20;99.90
64951;DHT22;51482;47.014;7.652;2023-06-14T07:15:16;17.30;98.60
64951;DHT22;51482;47.014;7.652;2023-06-14T07:17:42;17.40;98.40
64951;DHT22;51482;47.014;7.652;2023-06-14T07:20:08;17.70;99.90
64951;DHT22;51482;47.014;7.652;2023-06-14T07:22:39;18.10;99.30
64951;DHT22;51482;47.014;7.652;2023-06-14T07:25:10;18.30;96.80
64951;DHT22;51482;47.014;7.652;2023-06-14T07:27:40;18.20;96.00
64951;DHT22;51482;47.014;7.652;2023-06-14T07:30:07;18.70;97.50
64951;DHT22;51482;47.014;7.652;2023-06-14T07:32:32;18.20;95.20
64951;DHT22;51482;47.014;7.652;2023-06-14T07:34:58;18.80;96.00
64951;DHT22;51482;47.014;7.652;2023-06-14T07:37:23;18.90;94.20
64951;DHT22;51482;47.014;7.652;2023-06-14T07:39:49;19.10;93.90
64951;DHT22;51482;47.014;7.652;2023-06-14T07:42:14;19.40;94.70
64951;DHT22;51482;47.014;7.652;2023-06-14T07:44:40;19.50;93.10
64951;DHT22;51482;47.014;7.652;2023-06-14T07:47:06;20.00;91.30
64951;DHT22;51482;47.014;7.652;2023-06-14T07:49:31;20.00;90.70
64951;DHT22;51482;47.014;7.652;2023-06-14T07:51:57;20.20;86.90
64951;DHT22;51482;47.014;7.652;2023-06-14T07:54:24;20.40;87.00
64951;DHT22;51482;47.014;7.652;2023-06-14T07:56:51;21.10;86.90
64951;DHT22;51482;47.014;7.652;2023-06-14T07:59:17;21.30;84.20
64951;DHT22;51482;47.014;7.652;2023-06-14T08:01:43;21.40;83.10
64951;DHT22;51482;47.014;7.652;2023-06-14T08:04:13;21.10;83.30
64951;DHT22;51482;47.014;7.652;2023-06-14T08:06:38;21.40;82.40
64951;DHT22;51482;47.014;7.652;2023-06-14T08:09:04;21.90;79.30
64951;DHT22;51482;47.014;7.652;2023-06-14T08:11:31;21.70;80.50
64951;DHT22;51482;47.014;7.652;2023-06-14T08:13:56;22.50;77.10
64951;DHT22;51482;47.014;7.652;2023-06-14T08:16:22;22.70;80.10
64951;DHT22;51482;47.014;7.652;2023-06-14T08:18:48;22.40;74.20
64951;DHT22;51482;47.014;7.652;2023-06-14T08:21:14;22.50;71.10
64951;DHT22;51482;47.014;7.652;2023-06-14T08:23:40;22.60;70.50
64951;DHT22;51482;47.014;7.652;2023-06-14T08:26:08;23.10;68.40
64951;DHT22;51482;47.014;7.652;2023-06-14T08:28:34;22.80;66.10
64951;DHT22;51482;47.014;7.652;2023-06-14T08:31:00;23.20;67.20
64951;DHT22;51482;47.014;7.652;2023-06-14T08:33:25;23.20;62.10
64951;DHT22;51482;47.014;7.652;2023-06-14T08:35:51;23.30;62.10
64951;DHT22;51482;47.014;7.652;2023-06-14T08:38:16;23.60;62.30
64951;DHT22;51482;47.014;7.652;2023-06-14T08:40:42;23.60;59.30
64951;DHT22;51482;47.014;7.652;2023-06-14T08:43:08;23.70;60.10
64951;DHT22;51482;47.014;7.652;2023-06-14T08:45:34;24.40;61.80
64951;DHT22;51482;47.014;7.652;2023-06-14T08:47:59;24.50;58.40
64951;DHT22;51482;47.014;7.652;2023-06-14T08:50:26;24.30;59.40
64951;DHT22;51482;47.014;7.652;2023-06-14T08:52:58;24.40;58.30
64951;DHT22;51482;47.014;7.652;2023-06-14T08:55:28;24.60;55.40
64951;DHT22;51482;47.014;7.652;2023-06-14T08:57:55;24.80;57.20
64951;DHT22;51482;47.014;7.652;2023-06-14T09:00:24;24.70;54.70
64951;DHT22;51482;47.014;7.652;2023-06-14T09:02:51;24.70;54.40
64951;DHT22;51482;47.014;7.652;2023-06-14T09:05:23;25.00;55.50
64951;DHT22;51482;47.014;7.652;2023-06-14T09:07:49;25.60;54.90
64951;DHT22;51482;47.014;7.652;2023-06-14T09:10:16;25.90;55.40
64951;DHT22;51482;47.014;7.652;2023-06-14T09:12:42;26.10;55.50
64951;DHT22;51482;47.014;7.652;2023-06-14T09:15:09;26.30;53.90
64951;DHT22;51482;47.014;7.652;2023-06-14T09:17:36;26.40;52.30
64951;DHT22;51482;47.014;7.652;2023-06-14T09:20:06;26.50;51.80
64951;DHT22;51482;47.014;7.652;2023-06-14T09:22:34;26.80;52.00
64951;DHT22;51482;47.014;7.652;2023-06-14T09:25:00;27.00;51.40
64951;DHT22;51482;47.014;7.652;2023-06-14T09:27:26;26.90;50.20
64951;DHT22;51482;47.014;7.652;2023-06-14T09:29:53;27.10;51.40
64951;DHT22;51482;47.014;7.652;2023-06-14T09:32:18;26.80;49.90
64951;DHT22;51482;47.014;7.652;2023-06-14T09:34:45;27.20;50.40
64951;DHT22;51482;47.014;7.652;2023-06-14T09:37:11;27.30;50.10
64951;DHT22;51482;47.014;7.652;2023-06-14T09:39:52;27.50;50.00
64951;DHT22;51482;47.014;7.652;2023-06-14T09:42:18;27.40;48.50
64951;DHT22;51482;47.014;7.652;2023-06-14T09:44:47;26.80;48.30
64951;DHT22;51482;47.014;7.652;2023-06-14T09:47:15;27.60;49.40
64951;DHT22;51482;47.014;7.652;2023-06-14T09:49:42;27.60;48.60
64951;DHT22;51482;47.014;7.652;2023-06-14T09:52:15;27.60;47.70
64951;DHT22;51482;47.014;7.652;2023-06-14T09:54:43;27.60;47.60
64951;DHT22;51482;47.014;7.652;2023-06-14T09:57:10;28.40;48.00
64951;DHT22;51482;47.014;7.652;2023-06-14T09:59:43;28.10;47.70
64951;DHT22;51482;47.014;7.652;2023-06-14T10:02:18;28.30;46.30
64951;DHT22;51482;47.014;7.652;2023-06-14T10:04:57;28.10;46.00
64951;DHT22;51482;47.014;7.652;2023-06-14T10:07:25;28.30;45.80
64951;DHT22;51482;47.014;7.652;2023-06-14T10:09:52;28.00;43.70
64951;DHT22;51482;47.014;7.652;2023-06-14T10:12:18;28.30;46.00
64951;DHT22;51482;47.014;7.652;2023-06-14T10:14:51;28.60;45.50
64951;DHT22;51482;47.014;7.652;2023-06-14T10:17:47;28.60;44.70
64951;DHT22;51482;47.014;7.652;2023-06-14T10:20:40;28.40;44.50
64951;DHT22;51482;47.014;7.652;2023-06-14T10:23:17;28.60;45.30
64951;DHT22;51482;47.014;7.652;2023-06-14T10:25:44;28.70;45.10
64951;DHT22;51482;47.014;7.652;2023-06-14T10:28:20;29.00;46.60
64951;DHT22;51482;47.014;7.652;2023-06-14T10:31:04;29.30;46.40
64951;DHT22;51482;47.014;7.652;2023-06-14T10:33:30;28.90;44.50
64951;DHT22;51482;47.014;7.652;2023-06-14T10:38:36;29.20;44.60
64951;DHT22;51482;47.014;7.652;2023-06-14T10:41:03;29.40;44.00
64951;DHT22;51482;47.014;7.652;2023-06-14T10:43:29;29.90;44.00
64951;DHT22;51482;47.014;7.652;2023-06-14T10:46:22;29.60;42.60
64951;DHT22;51482;47.014;7.652;2023-06-14T10:48:57;29.80;43.70
64951;DHT22;51482;47.014;7.652;2023-06-14T10:51:23;30.00;42.10
64951;DHT22;51482;47.014;7.652;2023-06-14T10:53:49;30.20;41.80
64951;DHT22;51482;47.014;7.652;2023-06-14T10:56:27;30.40;41.10
64951;DHT22;51482;47.014;7.652;2023-06-14T10:58:54;30.30;41.20
64951;DHT22;51482;47.014;7.652;2023-06-14T11:01:34;30.70;41.20
64951;DHT22;51482;47.014;7.652;2023-06-14T11:04:07;30.60;40.50
64951;DHT22;51482;47.014;7.652;2023-06-14T11:06:49;30.50;41.00
64951;DHT22;51482;47.014;7.652;2023-06-14T11:12:03;30.50;39.20
64951;DHT22;51482;47.014;7.652;2023-06-14T11:14:30;30.50;40.50
64951;DHT22;51482;47.014;7.652;2023-06-14T11:16:56;31.30;40.30
64951;DHT22;51482;47.014;7.652;2023-06-14T11:19:22;30.60;39.30
64951;DHT22;51482;47.014;7.652;2023-06-14T11:21:50;30.70;40.00
64951;DHT22;51482;47.014;7.652;2023-06-14T11:24:16;30.30;39.40
64951;DHT22;51482;47.014;7.652;2023-06-14T11:26:42;31.30;39.70
64951;DHT22;51482;47.014;7.652;2023-06-14T11:29:08;31.10;39.70
64951;DHT22;51482;47.014;7.652;2023-06-14T11:31:33;31.00;38.90
64951;DHT22;51482;47.014;7.652;2023-06-14T11:34:00;31.20;39.30
64951;DHT22;51482;47.014;7.652;2023-06-14T11:36:29;31.50;39.90
64951;DHT22;51482;47.014;7.652;2023-06-14T11:39:04;31.30;38.90
64951;DHT22;51482;47.014;7.652;2023-06-14T11:41:40;31.20;38.60
64951;DHT22;51482;47.014;7.652;2023-06-14T11:44:06;31.60;38.40
64951;DHT22;51482;47.014;7.652;2023-06-14T11:46:32;31.00;38.70
64951;DHT22;51482;47.014;7.652;2023-06-14T11:48:58;31.40;38.90
64951;DHT22;51482;47.014;7.652;2023-06-14T11:51:24;31.50;38.70
64951;DHT22;51482;47.014;7.652;2023-06-14T11:53:50;31.50;39.30
64951;DHT22;51482;47.014;7.652;2023-06-14T11:56:16;31.30;38.10
64951;DHT22;51482;47.014;7.652;2023-06-14T11:58:45;31.20;38.20
64951;DHT22;51482;47.014;7.652;2023-06-14T12:01:16;31.40;39.40
64951;DHT22;51482;47.014;7.652;2023-06-14T12:03:48;31.10;36.90
64951;DHT22;51482;47.014;7.652;2023-06-14T12:06:14;31.60;39.70
64951;DHT22;51482;47.014;7.652;2023-06-14T12:08:40;31.40;39.10
64951;DHT22;51482;47.014;7.652;2023-06-14T12:11:17;31.60;38.40
64951;DHT22;51482;47.014;7.652;2023-06-14T12:13:43;31.60;38.80
64951;DHT22;51482;47.014;7.652;2023-06-14T12:16:09;31.70;38.90
64951;DHT22;51482;47.014;7.652;2023-06-14T12:18:39;32.00;38.70
64951;DHT22;51482;47.014;7.652;2023-06-14T12:21:07;31.60;38.80
64951;DHT22;51482;47.014;7.652;2023-06-14T12:23:46;31.60;38.40
64951;DHT22;51482;47.014;7.652;2023-06-14T12:26:14;31.80;38.20
64951;DHT22;51482;47.014;7.652;2023-06-14T12:28:40;32.00;38.10
64951;DHT22;51482;47.014;7.652;2023-06-14T12:31:07;31.90;37.30
64951;DHT22;51482;47.014;7.652;2023-06-14T12:33:33;32.20;36.70
64951;DHT22;51482;47.014;7.652;2023-06-14T12:35:58;31.70;37.20
64951;DHT22;51482;47.014;7.652;2023-06-14T12:38:24;31.70;35.40
64951;DHT22;51482;47.014;7.652;2023-06-14T12:40:50;31.10;35.20
64951;DHT22;51482;47.014;7.652;2023-06-14T12:43:15;31.20;35.60
64951;DHT22;51482;47.014;7.652;2023-06-14T12:45:41;31.10;35.50
64951;DHT22;51482;47.014;7.652;2023-06-14T12:48:06;31.00;35.40
64951;DHT22;51482;47.014;7.652;2023-06-14T12:50:37;31.20;35.40
64951;DHT22;51482;47.014;7.652;2023-06-14T12:53:02;31.50;34.80
64951;DHT22;51482;47.014;7.652;2023-06-14T12:55:28;31.60;35.40
64951;DHT22;51482;47.014;7.652;2023-06-14T12:57:54;31.90;35.00
64951;DHT22;51482;47.014;7.652;2023-06-14T13:00:19;31.80;33.30
64951;DHT22;51482;47.014;7.652;2023-06-14T13:02:46;31.40;34.80
64951;DHT22;51482;47.014;7.652;2023-06-14T13:05:12;31.50;35.70
64951;DHT22;51482;47.014;7.652;2023-06-14T13:07:38;31.30;36.60
64951;DHT22;51482;47.014;7.652;2023-06-14T13:10:03;31.40;34.60
64951;DHT22;51482;47.014;7.652;2023-06-14T13:12:29;31.40;34.60
64951;DHT22;51482;47.014;7.652;2023-06-14T13:14:55;32.00;35.80
64951;DHT22;51482;47.014;7.652;2023-06-14T13:17:20;31.70;36.10
64951;DHT22;51482;47.014;7.652;2023-06-14T13:19:46;32.30;35.50
64951;DHT22;51482;47.014;7.652;2023-06-14T13:22:11;31.10;33.20
64951;DHT22;51482;47.014;7.652;2023-06-14T13:24:37;31.30;34.70
64951;DHT22;51482;47.014;7.652;2023-06-14T13:27:03;31.20;33.80
64951;DHT22;51482;47.014;7.652;2023-06-14T13:29:28;31.40;34.90
64951;DHT22;51482;47.014;7.652;2023-06-14T13:31:56;31.60;35.20
64951;DHT22;51482;47.014;7.652;2023-06-14T13:34:21;31.50;33.80
64951;DHT22;51482;47.014;7.652;2023-06-14T13:36:48;31.90;34.90
64951;DHT22;51482;47.014;7.652;2023-06-14T13:39:14;31.30;33.30
64951;DHT22;51482;47.014;7.652;2023-06-14T13:41:39;31.30;33.80
64951;DHT22;51482;47.014;7.652;2023-06-14T13:44:07;31.00;33.10
64951;DHT22;51482;47.014;7.652;2023-06-14T13:46:33;30.90;32.30
64951;DHT22;51482;47.014;7.652;2023-06-14T13:48:59;31.30;32.30
64951;DHT22;51482;47.014;7.652;2023-06-14T13:51:26;31.50;33.10
64951;DHT22;51482;47.014;7.652;2023-06-14T13:53:53;31.70;32.70
64951;DHT22;51482;47.014;7.652;2023-06-14T13:56:18;31.60;32.40
64951;DHT22;51482;47.014;7.652;2023-06-14T13:58:44;31.70;31.10
64951;DHT22;51482;47.014;7.652;2023-06-14T14:01:10;31.70;31.80
64951;DHT22;51482;47.014;7.652;2023-06-14T14:03:37;31.30;32.50
64951;DHT22;51482;47.014;7.652;2023-06-14T14:06:04;31.70;32.90
64951;DHT22;51482;47.014;7.652;2023-06-14T14:08:29;31.60;34.10
64951;DHT22;51482;47.014;7.652;2023-06-14T14:10:55;31.50;31.30
64951;DHT22;51482;47.014;7.652;2023-06-14T14:13:21;31.50;32.30
64951;DHT22;51482;47.014;7.652;2023-06-14T14:15:47;31.50;32.60
64951;DHT22;51482;47.014;7.652;2023-06-14T14:18:14;31.70;33.20
64951;DHT22;51482;47.014;7.652;2023-06-14T14:20:40;31.60;32.00
64951;DHT22;51482;47.014;7.652;2023-06-14T14:23:06;31.60;32.90
64951;DHT22;51482;47.014;7.652;2023-06-14T14:25:31;31.30;32.60
64951;DHT22;51482;47.014;7.652;2023-06-14T14:27:57;31.20;31.70
64951;DHT22;51482;47.014;7.652;2023-06-14T14:30:22;31.30;32.00
64951;DHT22;51482;47.014;7.652;2023-06-14T14:32:49;31.50;32.00
64951;DHT22;51482;47.014;7.652;2023-06-14T14:35:17;31.20;31.00
64951;DHT22;51482;47.014;7.652;2023-06-14T14:37:43;31.30;32.20
64951;DHT22;51482;47.014;7.652;2023-06-14T14:40:09;31.10;31.00
64951;DHT22;51482;47.014;7.652;2023-06-14T14:42:35;31.00;29.30
64951;DHT22;51482;47.014;7.652;2023-06-14T14:45:01;31.20;31.20
64951;DHT22;51482;47.014;7.652;2023-06-14T14:47:27;31.10;31.60
64951;DHT22;51482;47.014;7.652;2023-06-14T14:49:52;31.00;31.30
64951;DHT22;51482;47.014;7.652;2023-06-14T14:52:18;30.70;30.60
64951;DHT22;51482;47.014;7.652;2023-06-14T14:54:43;30.50;31.10
64951;DHT22;51482;47.014;7.652;2023-06-14T14:57:09;30.60;30.20
64951;DHT22;51482;47.014;7.652;2023-06-14T14:59:35;30.80;32.10
64951;DHT22;51482;47.014;7.652;2023-06-14T15:02:01;31.10;33.80
64951;DHT22;51482;47.014;7.652;2023-06-14T15:04:27;31.20;34.00
64951;DHT22;51482;47.014;7.652;2023-06-14T15:06:52;30.70;33.30
64951;DHT22;51482;47.014;7.652;2023-06-14T15:09:18;31.00;33.80
64951;DHT22;51482;47.014;7.652;2023-06-14T15:11:44;30.60;32.50
64951;DHT22;51482;47.014;7.652;2023-06-14T15:14:10;30.90;32.40
64951;DHT22;51482;47.014;7.652;2023-06-14T15:16:36;30.70;33.90
64951;DHT22;51482;47.014;7.652;2023-06-14T15:19:01;30.80;32.80
64951;DHT22;51482;47.014;7.652;2023-06-14T15:21:27;30.90;31.80
64951;DHT22;51482;47.014;7.652;2023-06-14T15:23:52;30.40;32.50
64951;DHT22;51482;47.014;7.652;2023-06-14T15:26:19;30.30;32.70
64951;DHT22;51482;47.014;7.652;2023-06-14T15:28:45;30.70;33.00
64951;DHT22;51482;47.014;7.652;2023-06-14T15:31:10;30.10;30.70
64951;DHT22;51482;47.014;7.652;2023-06-14T15:33:36;30.40;32.40
64951;DHT22;51482;47.014;7.652;2023-06-14T15:36:01;30.10;32.20
64951;DHT22;51482;47.014;7.652;2023-06-14T15:38:28;30.10;33.10